createdAt,value
2022-10-25T00:02:17.471Z,1.23
2022-10-25T00:04:46.307Z,1.13
2022-10-25T00:07:14.420Z,1.20
2022-10-25T00:09:42.151Z,1.53
2022-10-25T00:12:09.998Z,1.13
2022-10-25T00:14:37.681Z,1.37
2022-10-25T00:17:06.664Z,1.00
2022-10-25T00:19:34.285Z,1.43
2022-10-25T00:22:01.925Z,1.67
2022-10-25T00:24:29.621Z,1.33
2022-10-25T00:26:57.337Z,1.20
2022-10-25T00:29:25.000Z,1.40
2022-10-25T00:31:52.620Z,1.10
2022-10-25T00:34:21.595Z,1.57
2022-10-25T00:36:49.170Z,1.40
2022-10-25T00:39:16.804Z,1.70
2022-10-25T00:41:44.414Z,1.13
2022-10-25T00:44:46.534Z,1.40
2022-10-25T00:47:23.203Z,1.47
2022-10-25T00:49:58.196Z,1.30
2022-10-25T00:52:26.868Z,1.30
2022-10-25T00:54:55.225Z,1.57
2022-10-25T00:57:26.383Z,1.60
2022-10-25T00:59:54.331Z,1.83
2022-10-25T01:02:23.784Z,1.47
2022-10-25T01:04:54.470Z,1.70
2022-10-25T01:07:22.059Z,1.60
2022-10-25T01:09:49.949Z,1.40
2022-10-25T01:12:17.772Z,1.00
2022-10-25T01:14:48.278Z,1.50
2022-10-25T01:17:24.503Z,1.73
2022-10-25T01:20:22.658Z,1.50
2022-10-25T01:22:59.282Z,1.50
2022-10-25T01:25:45.013Z,1.40
2022-10-25T01:28:16.250Z,2.10
2022-10-25T01:31:01.357Z,1.37
2022-10-25T01:33:36.442Z,1.50
2022-10-25T01:38:47.962Z,2.10
2022-10-25T01:41:22.796Z,1.60
2022-10-25T01:44:04.770Z,1.67
2022-10-25T01:46:41.581Z,1.47
2022-10-25T01:49:14.928Z,1.37
2022-10-25T01:51:42.500Z,1.57
2022-10-25T01:54:21.320Z,1.47
2022-10-25T01:57:01.643Z,1.63
2022-10-25T01:59:58.965Z,1.23
2022-10-25T02:02:33.899Z,1.43
2022-10-25T02:05:10.274Z,1.40
2022-10-25T02:07:39.842Z,1.03
2022-10-25T02:10:11.854Z,1.70
2022-10-25T02:12:49.508Z,1.33
2022-10-25T02:15:22.326Z,1.13
2022-10-25T02:17:56.790Z,1.80
2022-10-25T02:20:27.036Z,1.37
2022-10-25T02:22:56.438Z,1.50
2022-10-25T02:25:24.093Z,1.30
2022-10-25T02:27:54.993Z,1.17
2022-10-25T02:30:22.714Z,1.27
2022-10-25T02:32:52.815Z,1.57
2022-10-25T02:35:20.930Z,1.40
2022-10-25T02:37:48.930Z,1.53
2022-10-25T02:40:17.059Z,1.30
2022-10-25T02:42:44.664Z,1.20
2022-10-25T02:45:12.307Z,1.80
2022-10-25T02:47:39.939Z,1.27
2022-10-25T02:50:09.665Z,1.00
2022-10-25T02:52:37.271Z,1.70
2022-10-25T02:55:05.497Z,1.20
2022-10-25T02:57:34.826Z,1.30
2022-10-25T03:00:02.468Z,1.53
2022-10-25T03:02:30.086Z,1.20
2022-10-25T03:04:57.746Z,1.27
2022-10-25T03:07:26.721Z,1.33
2022-10-25T03:09:54.308Z,1.40
2022-10-25T03:12:21.910Z,1.50
2022-10-25T03:14:49.475Z,1.83
2022-10-25T03:17:17.039Z,1.67
2022-10-25T03:19:44.637Z,1.70
2022-10-25T03:22:12.271Z,1.47
2022-10-25T03:24:41.247Z,1.53
2022-10-25T03:27:08.822Z,1.50
2022-10-25T03:29:36.581Z,1.20
2022-10-25T03:32:05.512Z,1.40
2022-10-25T03:34:33.119Z,1.57
2022-10-25T03:37:00.850Z,1.30
2022-10-25T03:39:28.491Z,1.53
2022-10-25T03:41:57.546Z,1.90
2022-10-25T03:44:25.134Z,1.90
2022-10-25T03:46:53.826Z,1.50
2022-10-25T03:49:21.574Z,1.73
2022-10-25T03:51:52.319Z,1.60
2022-10-25T03:54:25.623Z,1.57
2022-10-25T03:56:57.917Z,1.80
2022-10-25T03:59:25.489Z,1.20
2022-10-25T04:01:53.223Z,1.80
2022-10-25T04:04:21.053Z,1.50
2022-10-25T04:06:48.668Z,1.30
2022-10-25T04:09:16.591Z,1.40
2022-10-25T04:11:44.272Z,1.33
2022-10-25T04:14:13.578Z,1.30
2022-10-25T04:16:41.155Z,1.40
2022-10-25T04:19:08.808Z,2.20
2022-10-25T04:21:36.590Z,1.27
2022-10-25T04:24:04.801Z,1.10
2022-10-25T04:26:34.824Z,1.20
2022-10-25T04:29:02.419Z,1.60
2022-10-25T04:31:32.132Z,1.47
2022-10-25T04:33:59.982Z,1.30
2022-10-25T04:36:29.995Z,1.53
2022-10-25T04:38:57.995Z,1.43
2022-10-25T04:41:25.716Z,1.30
2022-10-25T04:43:53.714Z,1.47
2022-10-25T04:46:21.496Z,1.90
2022-10-25T04:48:50.557Z,1.60
2022-10-25T04:51:18.239Z,1.10
2022-10-25T04:53:46.035Z,1.33
2022-10-25T04:56:14.939Z,1.20
2022-10-25T04:58:42.750Z,1.40
2022-10-25T05:01:12.930Z,1.33
2022-10-25T05:03:41.072Z,1.40
2022-10-25T05:06:12.927Z,1.00
2022-10-25T05:08:42.450Z,1.00
2022-10-25T05:11:13.081Z,1.17
2022-10-25T05:13:42.464Z,1.30
2022-10-25T05:16:14.596Z,1.30
2022-10-25T05:18:45.495Z,1.30
2022-10-25T05:21:17.015Z,2.03
2022-10-25T05:23:45.088Z,1.10
2022-10-25T05:26:15.021Z,1.23
2022-10-25T05:28:45.076Z,1.87
2022-10-25T05:31:15.696Z,1.17
2022-10-25T05:33:45.149Z,1.50
2022-10-25T05:36:15.303Z,1.47
2022-10-25T05:38:43.592Z,1.43
2022-10-25T05:41:12.699Z,1.60
2022-10-25T05:43:40.618Z,2.30
2022-10-25T05:46:10.218Z,2.07
2022-10-25T05:48:38.599Z,2.10
2022-10-25T05:51:32.851Z,1.70
2022-10-25T05:54:03.310Z,1.97
2022-10-25T05:56:32.471Z,1.80
2022-10-25T05:59:03.256Z,2.10
2022-10-25T06:01:30.941Z,2.10
2022-10-25T06:03:58.640Z,1.90
2022-10-25T06:06:28.307Z,2.07
2022-10-25T06:08:58.219Z,1.73
2022-10-25T06:11:27.164Z,1.50
2022-10-25T06:13:55.078Z,1.70
2022-10-25T06:16:23.485Z,1.70
2022-10-25T06:18:51.404Z,1.70
2022-10-25T06:21:20.991Z,2.10
2022-10-25T06:23:49.992Z,1.40
2022-10-25T06:26:19.706Z,1.70
2022-10-25T06:28:47.891Z,2.13
2022-10-25T06:31:17.038Z,2.00
2022-10-25T06:33:45.451Z,1.90
2022-10-25T06:36:16.210Z,1.87
2022-10-25T06:38:44.089Z,2.30
2022-10-25T06:41:15.291Z,2.10
2022-10-25T06:43:43.030Z,1.87
2022-10-25T06:46:13.712Z,2.00
2022-10-25T06:48:41.387Z,1.63
2022-10-25T06:51:10.230Z,1.90
2022-10-25T06:53:38.607Z,1.93
2022-10-25T06:56:10.654Z,1.90
2022-10-25T06:58:42.776Z,1.97
2022-10-25T07:01:13.091Z,1.67
2022-10-25T07:03:41.316Z,2.00
2022-10-25T07:06:10.689Z,1.50
2022-10-25T07:08:40.161Z,1.60
2022-10-25T07:11:08.532Z,1.80
2022-10-25T07:13:36.522Z,1.60
2022-10-25T07:16:06.805Z,1.70
2022-10-25T07:18:35.606Z,1.87
2022-10-25T07:21:04.840Z,1.67
2022-10-25T07:23:32.728Z,1.50
2022-10-25T07:26:00.823Z,1.30
2022-10-25T07:28:28.665Z,1.23
2022-10-25T07:30:56.258Z,1.47
2022-10-25T07:33:25.249Z,1.60
2022-10-25T07:36:05.922Z,1.50
2022-10-25T07:38:34.193Z,1.60
2022-10-25T07:41:02.261Z,1.73
2022-10-25T07:43:30.490Z,1.90
2022-10-25T07:45:58.168Z,1.90
2022-10-25T07:48:27.320Z,1.80
2022-10-25T07:50:54.969Z,1.90
2022-10-25T07:53:22.768Z,1.70
2022-10-25T07:55:55.509Z,2.23
2022-10-25T07:58:23.516Z,2.23
2022-10-25T08:00:51.087Z,2.50
2022-10-25T08:03:19.540Z,2.80
2022-10-25T08:05:49.475Z,3.07
2022-10-25T08:08:17.073Z,3.00
2022-10-25T08:10:45.569Z,3.03
2022-10-25T08:13:13.212Z,3.33
2022-10-25T08:15:41.859Z,3.40
2022-10-25T08:18:09.913Z,3.97
2022-10-25T08:21:00.561Z,4.50
2022-10-25T08:23:26.731Z,4.07
2022-10-25T08:25:54.382Z,4.03
2022-10-25T08:28:22.239Z,3.83
2022-10-25T08:30:49.913Z,3.30
2022-10-25T08:33:17.588Z,3.70
2022-10-25T08:35:45.219Z,3.17
2022-10-25T08:38:12.798Z,3.77
2022-10-25T08:40:51.212Z,3.70
2022-10-25T08:43:43.264Z,4.10
2022-10-25T08:46:14.495Z,3.27
2022-10-25T08:48:45.775Z,3.63
2022-10-25T08:51:21.599Z,3.67
2022-10-25T08:56:25.673Z,4.10
2022-10-25T08:58:57.153Z,3.57
2022-10-25T09:01:29.503Z,3.73
2022-10-25T09:03:57.522Z,4.13
2022-10-25T09:06:35.342Z,4.47
2022-10-25T09:09:20.204Z,4.50
2022-10-25T09:12:01.593Z,4.23
2022-10-25T09:14:39.662Z,4.23
2022-10-25T09:17:17.672Z,5.00
2022-10-25T09:19:55.637Z,4.10
2022-10-25T09:22:27.867Z,4.60
2022-10-25T09:25:00.844Z,4.47
2022-10-25T09:27:35.311Z,4.43
2022-10-25T09:30:07.852Z,3.90
2022-10-25T09:32:40.149Z,4.40
2022-10-25T09:35:15.081Z,4.23
2022-10-25T09:37:46.789Z,4.57
2022-10-25T09:40:18.961Z,4.40
2022-10-25T09:42:52.058Z,4.07
2022-10-25T09:45:25.783Z,3.90
2022-10-25T09:48:01.305Z,3.80
2022-10-25T09:50:31.659Z,4.17
2022-10-25T09:53:10.466Z,3.17
2022-10-25T09:55:43.458Z,3.83
2022-10-25T09:58:20.082Z,3.50
2022-10-25T10:00:48.293Z,3.80
2022-10-25T10:03:16.403Z,2.73
2022-10-25T10:05:49.923Z,3.27
2022-10-25T10:08:17.580Z,2.77
2022-10-25T10:10:47.700Z,2.40
2022-10-25T10:13:20.584Z,2.80
2022-10-25T10:15:57.479Z,2.70
2022-10-25T10:18:28.042Z,2.40
2022-10-25T10:21:02.804Z,2.57
2022-10-25T10:23:33.354Z,2.40
2022-10-25T10:26:11.292Z,2.43
2022-10-25T10:28:46.352Z,2.27
2022-10-25T10:31:14.282Z,2.30
2022-10-25T10:33:48.048Z,2.53
2022-10-25T10:36:24.647Z,2.60
2022-10-25T10:38:52.478Z,2.93
2022-10-25T10:41:26.558Z,2.40
2022-10-25T10:44:10.059Z,2.40
2022-10-25T10:46:37.815Z,2.07
2022-10-25T10:49:06.114Z,2.20
2022-10-25T10:51:44.040Z,2.00
2022-10-25T10:54:26.184Z,2.30
2022-10-25T10:56:56.207Z,2.37
2022-10-25T10:59:40.095Z,1.90
2022-10-25T11:02:14.228Z,2.40
2022-10-25T11:04:49.835Z,2.20
2022-10-25T11:07:26.978Z,2.30
2022-10-25T11:09:54.782Z,2.33
2022-10-25T11:12:22.474Z,2.67
2022-10-25T11:14:51.554Z,2.90
2022-10-25T11:17:26.039Z,2.70
2022-10-25T11:20:07.025Z,2.80
2022-10-25T11:22:53.652Z,2.20
2022-10-25T11:25:31.760Z,2.33
2022-10-25T11:28:14.382Z,2.10
2022-10-25T11:30:55.114Z,2.10
2022-10-25T11:33:38.593Z,1.97
2022-10-25T11:36:19.447Z,2.37
2022-10-25T11:39:05.228Z,2.10
2022-10-25T11:41:43.940Z,2.00
2022-10-25T11:44:51.286Z,1.90
2022-10-25T11:47:35.094Z,1.93
2022-10-25T11:50:19.592Z,1.97
2022-10-25T11:53:12.759Z,2.00
2022-10-25T11:55:47.242Z,1.80
2022-10-25T11:58:31.178Z,1.63
2022-10-25T12:01:05.673Z,2.00
2022-10-25T12:03:52.972Z,1.77
2022-10-25T12:06:25.915Z,1.53
2022-10-25T12:09:06.208Z,1.57
2022-10-25T12:11:42.230Z,1.60
2022-10-25T12:14:15.944Z,1.40
2022-10-25T12:16:44.478Z,1.50
2022-10-25T12:19:19.550Z,1.73
2022-10-25T12:21:54.818Z,1.60
2022-10-25T12:24:27.842Z,1.60
2022-10-25T12:26:56.519Z,1.60
2022-10-25T12:29:34.452Z,1.50
2022-10-25T12:32:04.189Z,1.93
2022-10-25T12:34:41.862Z,1.43
2022-10-25T12:37:14.754Z,1.80
2022-10-25T12:39:44.845Z,1.57
2022-10-25T12:42:18.107Z,1.50
2022-10-25T12:45:04.827Z,1.33
2022-10-25T12:47:48.780Z,1.60
2022-10-25T12:50:47.632Z,1.40
2022-10-25T12:54:03.071Z,1.27
2022-10-25T12:56:44.829Z,1.70
2022-10-25T12:59:38.321Z,1.30
2022-10-25T13:02:45.913Z,1.30
2022-10-25T13:05:42.303Z,1.20
2022-10-25T13:08:13.372Z,1.13
2022-10-25T13:10:45.563Z,1.60
2022-10-25T13:13:19.986Z,1.30
2022-10-25T13:15:50.208Z,1.60
2022-10-25T13:18:38.980Z,1.50
2022-10-25T13:21:08.461Z,1.63
2022-10-25T13:24:01.075Z,1.43
2022-10-25T13:26:32.147Z,1.40
2022-10-25T13:29:02.472Z,1.50
2022-10-25T13:31:32.792Z,1.13
2022-10-25T13:34:29.632Z,1.20
2022-10-25T13:36:58.612Z,1.40
2022-10-25T13:39:31.419Z,1.30
2022-10-25T13:42:04.165Z,1.40
2022-10-25T13:44:32.037Z,1.77
2022-10-25T13:46:59.883Z,1.53
2022-10-25T13:49:36.550Z,1.40
2022-10-25T13:52:07.044Z,1.40
2022-10-25T13:54:47.128Z,1.20
2022-10-25T13:57:49.537Z,1.20
2022-10-25T14:00:38.985Z,1.30
2022-10-25T14:03:35.603Z,1.33
2022-10-25T14:06:15.034Z,1.20
2022-10-25T14:08:54.441Z,1.33
2022-10-25T14:11:35.057Z,1.13
2022-10-25T14:14:13.401Z,1.10
2022-10-25T14:16:47.866Z,1.50
2022-10-25T14:19:19.504Z,1.20
2022-10-25T14:21:48.241Z,1.30
2022-10-25T14:24:17.630Z,1.13
2022-10-25T14:26:55.866Z,1.30
2022-10-25T14:29:26.655Z,1.10
2022-10-25T14:31:55.202Z,1.30
2022-10-25T14:34:25.298Z,1.60
2022-10-25T14:36:54.863Z,1.53
2022-10-25T14:39:24.810Z,1.13
2022-10-25T14:41:56.101Z,1.30
2022-10-25T14:44:27.907Z,1.53
2022-10-25T14:46:56.495Z,1.10
2022-10-25T14:49:24.971Z,1.30
2022-10-25T14:51:55.007Z,1.20
2022-10-25T14:54:29.972Z,1.10
2022-10-25T14:57:02.034Z,1.00
2022-10-25T14:59:40.225Z,1.37
2022-10-25T15:02:18.674Z,1.30
2022-10-25T15:04:49.270Z,0.70
2022-10-25T15:07:22.428Z,0.87
2022-10-25T15:09:51.156Z,1.23
2022-10-25T15:12:22.805Z,1.03
2022-10-25T15:14:50.460Z,1.47
2022-10-25T15:17:27.412Z,1.17
2022-10-25T15:20:02.721Z,1.30
2022-10-25T15:22:32.071Z,1.40
2022-10-25T15:25:00.022Z,1.23
2022-10-25T15:27:35.236Z,1.73
2022-10-25T15:30:04.914Z,1.93
2022-10-25T15:32:32.958Z,1.10
2022-10-25T15:35:03.252Z,0.97
2022-10-25T15:37:31.428Z,1.10
2022-10-25T15:39:59.199Z,1.10
2022-10-25T15:42:27.756Z,1.10
2022-10-25T15:44:56.758Z,1.20
2022-10-25T15:47:37.440Z,1.10
2022-10-25T15:50:14.233Z,1.13
2022-10-25T15:52:42.105Z,1.30
2022-10-25T15:55:21.309Z,1.30
2022-10-25T15:57:49.446Z,1.13
2022-10-25T16:00:22.998Z,1.30
2022-10-25T16:02:53.472Z,1.40
2022-10-25T16:05:23.402Z,1.27
2022-10-25T16:07:51.889Z,1.00
2022-10-25T16:10:22.096Z,0.90
2022-10-25T16:12:58.505Z,0.93
2022-10-25T16:15:28.907Z,1.10
2022-10-25T16:17:56.550Z,0.90
2022-10-25T16:20:26.392Z,1.07
2022-10-25T16:22:55.492Z,0.90
2022-10-25T16:25:26.794Z,1.00
2022-10-25T16:27:56.820Z,1.10
2022-10-25T16:30:26.542Z,0.80
2022-10-25T16:32:55.596Z,0.80
2022-10-25T16:35:24.308Z,1.10
2022-10-25T16:37:52.396Z,0.80
2022-10-25T16:40:22.017Z,0.90
2022-10-25T16:42:50.736Z,1.30
2022-10-25T16:45:23.922Z,1.00
2022-10-25T16:47:51.710Z,1.30
2022-10-25T16:50:23.625Z,1.00
2022-10-25T16:52:51.948Z,0.90
2022-10-25T16:55:20.491Z,1.03
2022-10-25T17:00:21.126Z,0.80
2022-10-25T17:02:49.168Z,1.00
2022-10-25T17:05:20.985Z,0.90
2022-10-25T17:07:49.421Z,0.90
2022-10-25T17:10:18.490Z,0.90
2022-10-25T17:12:47.676Z,1.00
2022-10-25T17:15:16.411Z,0.90
2022-10-25T17:17:45.608Z,0.93
2022-10-25T17:20:15.319Z,1.10
2022-10-25T17:22:44.605Z,0.80
2022-10-25T17:25:12.977Z,0.90
2022-10-25T17:27:45.477Z,1.07
2022-10-25T17:30:16.214Z,1.10
2022-10-25T17:32:44.002Z,1.13
2022-10-25T17:35:11.860Z,1.00
2022-10-25T17:37:42.677Z,1.10
2022-10-25T17:40:14.641Z,1.03
2022-10-25T17:42:42.358Z,1.20
2022-10-25T17:45:11.168Z,1.30
2022-10-25T17:47:42.500Z,1.10
2022-10-25T17:50:11.062Z,1.20
2022-10-25T17:52:41.240Z,1.37
2022-10-25T17:55:11.289Z,1.17
2022-10-25T17:57:40.361Z,1.20
2022-10-25T18:00:09.618Z,0.90
2022-10-25T18:02:37.646Z,1.70
2022-10-25T18:05:19.793Z,1.73
2022-10-25T18:07:49.095Z,1.40
2022-10-25T18:10:17.057Z,1.57
2022-10-25T18:12:46.558Z,1.53
2022-10-25T18:15:14.536Z,1.40
2022-10-25T18:17:43.081Z,1.67
2022-10-25T18:20:11.397Z,1.50
2022-10-25T18:22:39.144Z,1.73
2022-10-25T18:25:07.767Z,1.67
2022-10-25T18:27:35.669Z,1.40
2022-10-25T18:30:05.840Z,1.17
2022-10-25T18:32:36.153Z,1.40
2022-10-25T18:35:04.344Z,1.30
2022-10-25T18:37:32.053Z,1.27
2022-10-25T18:40:02.133Z,1.37
2022-10-25T18:42:29.804Z,1.47
2022-10-25T18:44:57.524Z,1.50
2022-10-25T18:47:26.612Z,1.60
2022-10-25T18:49:54.573Z,1.63
2022-10-25T18:52:23.357Z,1.50
2022-10-25T18:54:51.012Z,1.80
2022-10-25T18:57:18.762Z,1.80
2022-10-25T18:59:46.440Z,1.73
2022-10-25T19:02:14.260Z,1.63
2022-10-25T19:04:43.432Z,1.60
2022-10-25T19:07:11.397Z,1.60
2022-10-25T19:09:39.176Z,1.53
2022-10-25T19:12:07.362Z,1.67
2022-10-25T19:14:35.059Z,1.40
2022-10-25T19:17:02.843Z,1.60
2022-10-25T19:19:30.623Z,1.63
2022-10-25T19:21:59.725Z,1.40
2022-10-25T19:24:27.458Z,1.40
2022-10-25T19:26:55.134Z,1.30
2022-10-25T19:29:22.849Z,1.30
2022-10-25T19:31:51.919Z,1.40
2022-10-25T19:34:19.768Z,1.37
2022-10-25T19:36:48.219Z,1.43
2022-10-25T19:39:17.323Z,1.60
2022-10-25T19:41:44.985Z,1.10
2022-10-25T19:44:12.891Z,1.73
2022-10-25T19:46:40.587Z,1.40
2022-10-25T19:49:08.341Z,1.60
2022-10-25T19:51:35.993Z,1.57
2022-10-25T19:54:03.673Z,1.53
2022-10-25T19:56:34.014Z,1.70
2022-10-25T19:59:01.747Z,1.30
2022-10-25T20:01:29.693Z,1.43
2022-10-25T20:03:58.839Z,1.60
2022-10-25T20:06:28.920Z,1.40
2022-10-25T20:08:57.690Z,1.47
2022-10-25T20:11:26.705Z,1.43
2022-10-25T20:13:56.567Z,1.50
2022-10-25T20:16:25.268Z,1.73
2022-10-25T20:18:53.287Z,1.60
2022-10-25T20:21:22.628Z,1.53
2022-10-25T20:23:57.187Z,1.90
2022-10-25T20:26:27.140Z,1.57
2022-10-25T20:28:58.084Z,1.97
2022-10-25T20:31:27.219Z,1.70
2022-10-25T20:33:56.194Z,1.70
2022-10-25T20:36:24.713Z,1.50
2022-10-25T20:38:52.992Z,1.77
2022-10-25T20:41:22.123Z,1.90
2022-10-25T20:43:51.726Z,1.90
2022-10-25T20:46:22.735Z,1.70
2022-10-25T20:48:50.419Z,2.10
2022-10-25T20:51:19.011Z,1.80
2022-10-25T20:53:48.602Z,1.60
2022-10-25T20:56:17.238Z,1.50
2022-10-25T20:58:45.375Z,1.50
2022-10-25T21:01:13.360Z,1.50
2022-10-25T21:03:42.591Z,1.63
2022-10-25T21:06:12.682Z,1.43
2022-10-25T21:08:40.819Z,1.43
2022-10-25T21:11:11.109Z,1.40
2022-10-25T21:13:39.055Z,1.53
2022-10-25T21:16:07.699Z,1.30
2022-10-25T21:18:36.111Z,1.37
2022-10-25T21:21:07.543Z,1.57
2022-10-25T21:23:35.306Z,1.33
2022-10-25T21:26:05.137Z,1.53
2022-10-25T21:28:34.303Z,1.50
2022-10-25T21:31:03.033Z,1.57
2022-10-25T21:33:30.856Z,1.37
2022-10-25T21:36:03.210Z,1.60
2022-10-25T21:38:32.468Z,1.43
2022-10-25T21:41:10.945Z,1.53
2022-10-25T21:43:41.754Z,1.60
2022-10-25T21:46:09.518Z,1.40
2022-10-25T21:48:37.267Z,1.80
2022-10-25T21:51:05.388Z,1.80
2022-10-25T21:53:34.801Z,1.80
2022-10-25T21:56:07.163Z,1.67
2022-10-25T21:58:34.894Z,1.97
2022-10-25T22:01:02.786Z,1.63
2022-10-25T22:03:31.143Z,1.80
2022-10-25T22:05:59.038Z,1.63
2022-10-25T22:08:26.645Z,1.53
2022-10-25T22:11:03.710Z,1.60
2022-10-25T22:13:31.526Z,1.50
2022-10-25T22:16:01.152Z,1.90
2022-10-25T22:18:29.128Z,1.70
2022-10-25T22:20:58.900Z,1.87
2022-10-25T22:23:28.395Z,2.33
2022-10-25T22:25:59.898Z,2.13
2022-10-25T22:28:28.979Z,1.97
2022-10-25T22:30:59.806Z,2.40
2022-10-25T22:33:27.596Z,1.63
2022-10-25T22:35:55.520Z,1.90
2022-10-25T22:38:23.209Z,2.00
2022-10-25T22:40:58.052Z,1.97
2022-10-25T22:43:25.886Z,2.13
2022-10-25T22:45:55.334Z,2.10
2022-10-25T22:48:23.561Z,2.37
2022-10-25T22:50:52.365Z,2.03
2022-10-25T22:53:21.054Z,2.27
2022-10-25T22:55:59.806Z,2.00
2022-10-25T22:58:28.654Z,2.00
2022-10-25T23:03:36.459Z,2.03
2022-10-25T23:06:05.405Z,1.77
2022-10-25T23:08:33.263Z,2.20
2022-10-25T23:11:02.927Z,2.00
2022-10-25T23:13:31.858Z,1.70
2022-10-25T23:16:01.021Z,2.00
2022-10-25T23:18:29.174Z,1.60
2022-10-25T23:20:58.054Z,2.07
2022-10-25T23:23:26.625Z,2.03
2022-10-25T23:25:54.764Z,1.90
2022-10-25T23:28:22.818Z,1.90
2022-10-25T23:30:50.508Z,1.63
2022-10-25T23:33:19.506Z,2.00
2022-10-25T23:35:47.169Z,2.03
2022-10-25T23:38:15.322Z,2.20
2022-10-25T23:40:46.725Z,1.83
2022-10-25T23:43:17.027Z,1.80
2022-10-25T23:45:44.716Z,2.10
2022-10-25T23:48:12.392Z,1.77
2022-10-25T23:50:41.415Z,2.07
2022-10-25T23:53:09.592Z,1.77
2022-10-25T23:55:38.720Z,1.90
2022-10-25T23:58:06.492Z,2.00
